Time;durP1;ratioP1;P1;durP2;ratioP2;P2;SDS_P1;SDS_P2;PMS_P1;PMS_P2;Temp;Humidity;BMP_temperature;BMP_pressure;BME280_temperature;BME280_humidity;BME280_pressure;Samples;Min_cycle;Max_cycle;Signal;HPM_P1;HPM_P2
2020/05/17 00:02:31;;;;;;;11.5;10.3;;;;;;;10.38;84.80859;960.9794;;;;
2020/05/17 00:15:05;;;;;;;12.4;11.1;;;;;;;10.26;82.64453;960.9981;;;;
2020/05/17 00:21:28;;;;;;;12.2;11.1;;;;;;;10.27;82.52148;960.9769;;;;
2020/05/17 00:44:51;;;;;;;11.9;10.8;;;;;;;10.01;82.46973;960.8483;;;;
2020/05/17 00:49:30;;;;;;;11.6;10.5;;;;;;;10.08;82.08105;960.9296;;;;
2020/05/17 00:54:26;;;;;;;11.7;10.5;;;;;;;10.15;82.55664;960.9608;;;;
2020/05/17 00:56:42;;;;;;;12.1;11;;;;;;;10.05;82.1582;961.0181;;;;
2020/05/17 01:09:09;;;;;;;12.7;11.4;;;;;;;9.94;81.81445;960.934;;;;
2020/05/17 01:24:58;;;;;;;11.7;10.6;;;;;;;9.88;82.18164;960.9512;;;;
2020/05/17 01:33:54;;;;;;;12.6;11.4;;;;;;;9.7;83.68652;960.9867;;;;
2020/05/17 02:04:30;;;;;;;10.4;9.4;;;;;;;9.03;85.95313;961.062;;;;
2020/05/17 02:16:51;;;;;;;9.8;8.8;;;;;;;8.76;87.44727;961.1113;;;;
2020/05/17 02:19:30;;;;;;;9.9;8.9;;;;;;;8.75;88.25684;961.0818;;;;
2020/05/17 02:22:55;;;;;;;10.2;9.3;;;;;;;8.61;88.76855;961.1094;;;;
2020/05/17 02:26:39;;;;;;;10.3;9.3;;;;;;;8.64;89.46289;961.0901;;;;
2020/05/17 02:34:18;;;;;;;11.8;10.6;;;;;;;8.43;90.57715;961.0709;;;;
2020/05/17 02:45:07;;;;;;;11.6;10.5;;;;;;;8.58;90.80176;961.111;;;;
2020/05/17 03:14:26;;;;;;;9.1;8.3;;;;;;;8.48;88.74023;961.1561;;;;
2020/05/17 03:26:46;;;;;;;9.5;8.7;;;;;;;8.73;87.88672;961.3215;;;;
2020/05/17 03:36:48;;;;;;;10.6;9.6;;;;;;;8.67;88.27637;961.4158;;;;
2020/05/17 03:42:39;;;;;;;9.7;8.8;;;;;;;8.7;87.28711;961.454;;;;
2020/05/17 03:49:40;;;;;;;10.4;9.5;;;;;;;8.68;87.23633;961.53;;;;
2020/05/17 04:03:00;;;;;;;10.7;9.8;;;;;;;8.46;89.36621;961.6077;;;;
2020/05/17 04:12:57;;;;;;;12;10.9;;;;;;;8.71;87.47266;961.6447;;;;
2020/05/17 04:16:01;;;;;;;11.5;10.5;;;;;;;8.71;89.39551;961.6511;;;;
2020/05/17 04:18:30;;;;;;;12;10.8;;;;;;;8.61;89.34082;961.6481;;;;
2020/05/17 04:20:55;;;;;;;12.7;11;;;;;;;8.85;87.89941;961.6362;;;;
2020/05/17 04:23:22;;;;;;;12.9;11.7;;;;;;;8.77;87.96289;961.6724;;;;
2020/05/17 04:25:47;;;;;;;12.3;11.1;;;;;;;8.77;89.58105;961.6781;;;;
2020/05/17 04:28:24;;;;;;;12.8;11.6;;;;;;;8.82;89.23633;961.6997;;;;
2020/05/17 04:30:58;;;;;;;13.2;12;;;;;;;8.79;89.52734;961.7084;;;;
2020/05/17 04:33:30;;;;;;;13;11.8;;;;;;;8.87;89.33984;961.7647;;;;
2020/05/17 04:35:55;;;;;;;13.4;12.2;;;;;;;8.88;89.35254;961.7863;;;;
2020/05/17 04:38:20;;;;;;;14;12.7;;;;;;;8.85;90.18164;961.8142;;;;
2020/05/17 04:40:58;;;;;;;13.5;12.3;;;;;;;8.91;89.59863;961.8753;;;;
2020/05/17 04:43:28;;;;;;;13.3;12.1;;;;;;;8.92;89.96777;961.8711;;;;
2020/05/17 04:45:54;;;;;;;13.3;12;;;;;;;9.02;86.57129;961.8965;;;;
2020/05/17 04:48:22;;;;;;;13.4;12.1;;;;;;;9.12;88.24414;961.9205;;;;
2020/05/17 04:50:48;;;;;;;13.5;12.3;;;;;;;;;;;;;
2020/05/17 04:53:18;;;;;;;13.4;12.3;;;;;;;;;;;;;
2020/05/17 04:55:43;;;;;;;14.3;12.9;;;;;;;;;;;;;
2020/05/17 04:58:08;;;;;;;14.3;13;;;;;;;;;;;;;
2020/05/17 05:00:36;;;;;;;13.3;12.1;;;;;;;;;;;;;
2020/05/17 05:03:01;;;;;;;14;12.8;;;;;;;;;;;;;
2020/05/17 05:05:26;;;;;;;14.2;12.9;;;;;;;;;;;;;
2020/05/17 05:07:51;;;;;;;14.5;13.2;;;;;;;;;;;;;
2020/05/17 05:10:16;;;;;;;14.7;13.3;;;;;;;;;;;;;
2020/05/17 05:12:41;;;;;;;15.2;13.8;;;;;;;;;;;;;
2020/05/17 05:15:09;;;;;;;14.8;13.4;;;;;;;;;;;;;
2020/05/17 05:17:34;;;;;;;12.7;11.6;;;;;;;;;;;;;
2020/05/17 05:20:01;;;;;;;13.9;12.6;;;;;;;;;;;;;
2020/05/17 05:22:27;;;;;;;14.1;12.8;;;;;;;;;;;;;
2020/05/17 05:24:51;;;;;;;14.4;13.1;;;;;;;;;;;;;
2020/05/17 05:27:17;;;;;;;13.9;12.7;;;;;;;;;;;;;
2020/05/17 05:29:50;;;;;;;14.6;13.3;;;;;;;;;;;;;
2020/05/17 05:32:20;;;;;;;14.5;13.2;;;;;;;;;;;;;
2020/05/17 05:34:47;;;;;;;13.6;12.4;;;;;;;;;;;;;
2020/05/17 05:37:12;;;;;;;12.7;11.6;;;;;;;;;;;;;
2020/05/17 05:39:37;;;;;;;13.5;12.3;;;;;;;;;;;;;
2020/05/17 05:42:04;;;;;;;13.4;12;;;;;;;;;;;;;
2020/05/17 05:44:30;;;;;;;13.2;12;;;;;;;;;;;;;
2020/05/17 05:46:56;;;;;;;12.7;11.5;;;;;;;;;;;;;
2020/05/17 05:49:21;;;;;;;13.1;11.9;;;;;;;;;;;;;
2020/05/17 05:51:46;;;;;;;13.6;12.4;;;;;;;;;;;;;
2020/05/17 05:54:11;;;;;;;13.4;12;;;;;;;;;;;;;
2020/05/17 05:56:37;;;;;;;12.7;11.6;;;;;;;;;;;;;
2020/05/17 05:59:06;;;;;;;12.8;11.7;;;;;;;;;;;;;
2020/05/17 06:01:31;;;;;;;13.2;12;;;;;;;;;;;;;
2020/05/17 06:04:04;;;;;;;12.9;11.7;;;;;;;;;;;;;
2020/05/17 06:06:19;;;;;;;13.2;12.1;;;;;;;;;;;;;
2020/05/17 06:08:44;;;;;;;13.1;11.9;;;;;;;;;;;;;
2020/05/17 06:11:12;;;;;;;12.9;11.8;;;;;;;;;;;;;
2020/05/17 06:13:40;;;;;;;14;12.7;;;;;;;;;;;;;
2020/05/17 06:16:05;;;;;;;13;11.8;;;;;;;;;;;;;
2020/05/17 06:18:30;;;;;;;12.6;11.5;;;;;;;;;;;;;
2020/05/17 06:21:07;;;;;;;12.9;11.7;;;;;;;;;;;;;
2020/05/17 06:23:28;;;;;;;12.6;11.4;;;;;;;;;;;;;
2020/05/17 06:25:52;;;;;;;12.8;11.7;;;;;;;;;;;;;
2020/05/17 06:28:18;;;;;;;12.2;11.1;;;;;;;;;;;;;
2020/05/17 06:30:46;;;;;;;13.1;11.8;;;;;;;;;;;;;
2020/05/17 06:33:11;;;;;;;13.4;12.1;;;;;;;;;;;;;
2020/05/17 06:35:36;;;;;;;12.9;11.7;;;;;;;;;;;;;
2020/05/17 06:38:01;;;;;;;12.3;11.1;;;;;;;;;;;;;
2020/05/17 06:40:26;;;;;;;12.3;11.2;;;;;;;;;;;;;
2020/05/17 06:42:56;;;;;;;13;11.8;;;;;;;;;;;;;
2020/05/17 06:45:28;;;;;;;14.2;12.8;;;;;;;;;;;;;
2020/05/17 06:47:53;;;;;;;14.3;12.9;;;;;;;;;;;;;
2020/05/17 06:50:18;;;;;;;14.1;12.8;;;;;;;;;;;;;
2020/05/17 06:52:44;;;;;;;14.5;13;;;;;;;;;;;;;
2020/05/17 06:55:09;;;;;;;14;12.7;;;;;;;;;;;;;
2020/05/17 06:57:34;;;;;;;13.1;11.9;;;;;;;;;;;;;
2020/05/17 07:00:01;;;;;;;12.5;11.3;;;;;;;;;;;;;
2020/05/17 07:02:32;;;;;;;13;11.8;;;;;;;;;;;;;
2020/05/17 07:04:57;;;;;;;12.6;11.5;;;;;;;;;;;;;
2020/05/17 07:07:33;;;;;;;13;11.8;;;;;;;;;;;;;
2020/05/17 07:09:48;;;;;;;13.5;12.2;;;;;;;;;;;;;
2020/05/17 07:12:13;;;;;;;18.8;16.8;;;;;;;;;;;;;
2020/05/17 07:14:38;;;;;;;18.7;16.7;;;;;;;;;;;;;
2020/05/17 07:17:03;;;;;;;15.5;13.9;;;;;;;;;;;;;
2020/05/17 07:19:29;;;;;;;13.6;12.2;;;;;;;;;;;;;
2020/05/17 07:22:01;;;;;;;12.7;11.5;;;;;;;;;;;;;
2020/05/17 07:24:31;;;;;;;12.1;11.1;;;;;;;;;;;;;
2020/05/17 07:26:59;;;;;;;12.7;11.6;;;;;;;;;;;;;
2020/05/17 07:29:24;;;;;;;12.5;11.3;;;;;;;;;;;;;
2020/05/17 07:31:49;;;;;;;12;10.9;;;;;;;;;;;;;
2020/05/17 07:34:23;;;;;;;11.7;10.7;;;;;;;;;;;;;
2020/05/17 07:36:49;;;;;;;12.6;11.5;;;;;;;;;;;;;
2020/05/17 07:39:14;;;;;;;11.7;10.6;;;;;;;;;;;;;
2020/05/17 07:41:40;;;;;;;11.4;10.3;;;;;;;;;;;;;
2020/05/17 07:44:09;;;;;;;11.9;10.8;;;;;;;;;;;;;
2020/05/17 07:46:34;;;;;;;11.9;10.7;;;;;;;;;;;;;
2020/05/17 07:48:59;;;;;;;11.6;9.8;;;;;;;;;;;;;
2020/05/17 07:51:34;;;;;;;10.2;9.2;;;;;;;;;;;;;
2020/05/17 07:53:58;;;;;;;10.7;9.6;;;;;;;;;;;;;
2020/05/17 07:56:23;;;;;;;10.2;9.2;;;;;;;;;;;;;
2020/05/17 07:58:57;;;;;;;11.4;10.2;;;;;;;;;;;;;
2020/05/17 08:01:25;;;;;;;10.1;9.1;;;;;;;;;;;;;
2020/05/17 08:03:53;;;;;;;10.5;9.5;;;;;;;;;;;;;
2020/05/17 08:06:39;;;;;;;10.3;9.3;;;;;;;;;;;;;
2020/05/17 08:08:55;;;;;;;10.4;9.3;;;;;;;;;;;;;
2020/05/17 08:11:19;;;;;;;10.6;9.5;;;;;;;;;;;;;
2020/05/17 08:13:47;;;;;;;12.2;10.5;;;;;;;;;;;;;
2020/05/17 08:16:26;;;;;;;10.6;9.5;;;;;;;;;;;;;
2020/05/17 08:18:50;;;;;;;11.1;10;;;;;;;;;;;;;
2020/05/17 08:21:32;;;;;;;11.3;9.7;;;;;;;;;;;;;
2020/05/17 08:23:54;;;;;;;11.1;9.6;;;;;;;;;;;;;
2020/05/17 08:26:30;;;;;;;11.1;10;;;;;;;;;;;;;
2020/05/17 08:31:43;;;;;;;12.4;10;;;;;;;;;;;;;
2020/05/17 08:33:50;;;;;;;11.5;10;;;;;;;;;;;;;
2020/05/17 08:36:18;;;;;;;10.9;9.8;;;;;;;;;;;;;
2020/05/17 08:38:33;;;;;;;11.7;10.5;;;;;;;;;;;;;
2020/05/17 08:41:02;;;;;;;11.7;10.5;;;;;;;;;;;;;
2020/05/17 08:43:28;;;;;;;11.1;9.9;;;;;;;;;;;;;
2020/05/17 08:51:23;;;;;;;11.3;10.1;;;;;;;;;;;;;
2020/05/17 08:53:10;;;;;;;12.4;10.1;;;;;;;;;;;;;
2020/05/17 08:56:19;;;;;;;11.1;9.1;;;;;;;;;;;;;
2020/05/17 08:57:58;;;;;;;10.8;9.6;;;;;;;;;;;;;
2020/05/17 09:00:32;;;;;;;13.1;10.2;;;;;;;;;;;;;
2020/05/17 09:15:06;;;;;;;13.7;9.7;;;;;;;;;;;;;
2020/05/17 09:17:35;;;;;;;13.6;10.5;;;;;;;;;;;;;
2020/05/17 09:19:57;;;;;;;14.5;10.2;;;;;;;;;;;;;
2020/05/17 09:22:25;;;;;;;12.7;9.2;;;;;;;;;;;;;
2020/05/17 09:24:50;;;;;;;13.6;8.4;;;;;;;;;;;;;
2020/05/17 09:27:15;;;;;;;13.3;8.8;;;;;;;;;;;;;
2020/05/17 09:29:45;;;;;;;13.3;8.3;;;;;;;;;;;;;
2020/05/17 09:32:12;;;;;;;10.1;7.1;;;;;;;;;;;;;
2020/05/17 09:34:41;;;;;;;10.3;7;;;;;;;;;;;;;
2020/05/17 09:37:06;;;;;;;9.5;7;;;;;;;;;;;;;
2020/05/17 09:39:33;;;;;;;9.6;6.9;;;;;;;;;;;;;
2020/05/17 09:42:05;;;;;;;12.5;7.8;;;;;;;;;;;;;
2020/05/17 09:44:32;;;;;;;12.3;7.8;;;;;;;;;;;;;
2020/05/17 09:46:57;;;;;;;9.9;7.5;;;;;;;;;;;;;
2020/05/17 09:49:23;;;;;;;11.9;8;;;;;;;;;;;;;
2020/05/17 09:51:48;;;;;;;9.4;6.9;;;;;;;;;;;;;
2020/05/17 09:54:13;;;;;;;8.7;6.4;;;;;;;;;;;;;
2020/05/17 09:56:38;;;;;;;9.7;7.3;;;;;;;;;;;;;
2020/05/17 09:59:03;;;;;;;8.5;6.3;;;;;;;;;;;;;
2020/05/17 10:01:29;;;;;;;9.1;6.4;;;;;;;;;;;;;
2020/05/17 10:03:54;;;;;;;8.1;6;;;;;;;;;;;;;
2020/05/17 10:06:22;;;;;;;8.9;5.5;;;;;;;;;;;;;
2020/05/17 10:08:47;;;;;;;6.3;5;;;;;;;;;;;;;
2020/05/17 10:11:14;;;;;;;7.2;5.1;;;;;;;;;;;;;
2020/05/17 10:13:39;;;;;;;7.3;5;;;;;;;;;;;;;
2020/05/17 10:16:10;;;;;;;7.7;5.2;;;;;;;;;;;;;
2020/05/17 10:18:33;;;;;;;6.9;5.1;;;;;;;;;;;;;
